Terminal Aerodrome Forecast
Issued by NWS North Platte, NE

Home | Current Version | Previous Version | Text Only | Print | Product List | Glossary On
Versions: 1 2 3 4 5 6 7 8 9 10 11 12 13 14 15 16 17 18
459
FTUS43 KLBF 190553
TAFLBF
TAF
KLBF 190553Z 1906/2006 03004KT P6SM SKC
     FM191600 14004KT P6SM FEW250
     FM191800 13008KT P6SM FEW250
     FM192200 13012KT P6SM FEW250=

USA.gov is the U.S. government's official web portal to all federal, state and local government web resources and services.